Time,TemperatureF,DewpointF,PressureIn,WindDirection,WindDirectionDegrees,WindSpeedMPH,WindSpeedGustMPH,Humidity,HourlyPrecipIn,Conditions,Clouds,dailyrainin,SoftwareType,DateUTC
2013-05-11 00:04:00,50.7,47.9,29.88,WSW,242,0.0,0.0,90,0.00,,,0.00,Wunderground v.1.15,2013-05-11 05:04:00,
2013-05-11 00:10:00,51.0,48.2,29.88,WSW,250,0.0,0.0,90,0.00,,,0.00,Wunderground v.1.15,2013-05-11 05:10:00,
2013-05-11 00:16:00,51.2,48.4,29.88,SW,236,0.0,0.0,90,0.00,,,0.00,Wunderground v.1.15,2013-05-11 05:16:00,
2013-05-11 00:22:00,51.3,48.5,29.88,West,262,0.0,0.0,90,0.00,,,0.00,Wunderground v.1.15,2013-05-11 05:22:00,
2013-05-11 00:28:00,51.5,48.7,29.88,West,266,0.0,0.0,90,0.00,,,0.00,Wunderground v.1.15,2013-05-11 05:28:00,
2013-05-11 00:34:00,51.7,48.9,29.87,WSW,238,0.0,1.0,90,0.00,,,0.00,Wunderground v.1.15,2013-05-11 05:34:00,
2013-05-11 00:40:00,52.0,49.2,29.87,WSW,250,1.0,1.0,90,0.00,,,0.00,Wunderground v.1.15,2013-05-11 05:40:00,
2013-05-11 00:46:00,52.3,49.2,29.87,WSW,253,1.0,1.0,89,0.00,,,0.00,Wunderground v.1.15,2013-05-11 05:46:00,
2013-05-11 00:52:00,52.5,49.4,29.87,SSW,212,1.0,2.0,89,0.00,,,0.00,Wunderground v.1.15,2013-05-11 05:52:00,
2013-05-11 00:58:00,52.4,48.9,29.87,SW,219,1.0,2.0,88,0.00,,,0.00,Wunderground v.1.15,2013-05-11 05:58:00,
2013-05-11 01:04:00,52.5,49.0,29.87,WSW,245,1.0,3.0,88,0.00,,,0.00,Wunderground v.1.15,2013-05-11 06:04:00,
2013-05-11 01:10:00,52.4,48.9,29.86,WSW,250,1.0,1.0,88,0.00,,,0.00,Wunderground v.1.15,2013-05-11 06:10:00,
2013-05-11 01:16:00,52.2,48.8,29.86,SW,231,1.0,1.0,88,0.00,,,0.00,Wunderground v.1.15,2013-05-11 06:16:00,
2013-05-11 01:22:00,51.8,48.4,29.86,WSW,256,1.0,5.0,88,0.00,,,0.00,Wunderground v.1.15,2013-05-11 06:22:00,
2013-05-11 01:28:00,51.7,48.3,29.86,WSW,248,1.0,5.0,88,0.00,,,0.00,Wunderground v.1.15,2013-05-11 06:28:00,
2013-05-11 01:34:00,51.8,48.1,29.86,WSW,249,1.0,1.0,87,0.00,,,0.00,Wunderground v.1.15,2013-05-11 06:34:00,
2013-05-11 01:40:00,51.6,48.2,29.86,WSW,242,1.0,1.0,88,0.00,,,0.00,Wunderground v.1.15,2013-05-11 06:40:00,
2013-05-11 01:46:00,51.5,48.1,29.86,West,278,1.0,1.0,88,0.00,,,0.00,Wunderground v.1.15,2013-05-11 06:46:00,
2013-05-11 01:52:00,51.3,47.9,29.86,WNW,287,1.0,2.0,88,0.00,,,0.00,Wunderground v.1.15,2013-05-11 06:52:00,
2013-05-11 01:58:00,51.3,47.9,29.85,West,273,1.0,3.0,88,0.00,,,0.00,Wunderground v.1.15,2013-05-11 06:58:00,
2013-05-11 02:04:00,51.2,47.8,29.85,West,267,1.0,2.0,88,0.00,,,0.00,Wunderground v.1.15,2013-05-11 07:04:00,
2013-05-11 02:10:00,51.3,47.6,29.85,WSW,245,1.0,2.0,87,0.00,,,0.00,Wunderground v.1.15,2013-05-11 07:10:00,
2013-05-11 02:16:00,51.4,47.7,29.85,South,191,2.0,2.0,87,0.00,,,0.00,Wunderground v.1.15,2013-05-11 07:16:00,
2013-05-11 02:22:00,51.4,47.7,29.84,WSW,241,2.0,2.0,87,0.00,,,0.00,Wunderground v.1.15,2013-05-11 07:22:00,
2013-05-11 02:28:00,51.4,47.7,29.84,SW,228,2.0,2.0,87,0.00,,,0.00,Wunderground v.1.15,2013-05-11 07:28:00,
2013-05-11 02:34:00,51.4,47.7,29.84,WSW,242,2.0,3.0,87,0.00,,,0.00,Wunderground v.1.15,2013-05-11 07:34:00,
2013-05-11 02:40:00,51.5,47.5,29.83,SW,236,1.0,3.0,86,0.00,,,0.00,Wunderground v.1.15,2013-05-11 07:40:00,
2013-05-11 02:46:00,51.6,47.5,29.83,WSW,239,2.0,8.0,86,0.00,,,0.00,Wunderground v.1.15,2013-05-11 07:46:00,
2013-05-11 02:52:00,51.5,47.5,29.83,SW,236,3.0,4.0,86,0.00,,,0.00,Wunderground v.1.15,2013-05-11 07:52:00,
2013-05-11 02:58:00,51.6,47.5,29.83,West,273,2.0,4.0,86,0.00,,,0.00,Wunderground v.1.15,2013-05-11 07:58:00,
2013-05-11 03:04:00,51.7,47.6,29.83,WSW,245,2.0,5.0,86,0.00,,,0.00,Wunderground v.1.15,2013-05-11 08:04:00,
2013-05-11 03:10:00,51.7,47.3,29.83,WSW,255,2.0,2.0,85,0.00,,,0.00,Wunderground v.1.15,2013-05-11 08:10:00,
2013-05-11 03:16:00,51.8,47.4,29.83,SW,214,3.0,4.0,85,0.00,,,0.00,Wunderground v.1.15,2013-05-11 08:16:00,
2013-05-11 03:22:00,51.8,47.4,29.83,WSW,252,3.0,3.0,85,0.00,,,0.00,Wunderground v.1.15,2013-05-11 08:22:00,
2013-05-11 03:28:00,51.9,47.5,29.83,WSW,256,3.0,3.0,85,0.00,,,0.00,Wunderground v.1.15,2013-05-11 08:28:00,
2013-05-11 03:34:00,51.9,47.5,29.83,WSW,250,3.0,3.0,85,0.00,,,0.00,Wunderground v.1.15,2013-05-11 08:34:00,
2013-05-11 03:40:00,51.8,47.7,29.83,West,269,3.0,3.0,86,0.00,,,0.00,Wunderground v.1.15,2013-05-11 08:40:00,
2013-05-11 03:46:00,51.9,47.8,29.84,West,277,2.0,3.0,86,0.00,,,0.00,Wunderground v.1.15,2013-05-11 08:46:00,
2013-05-11 03:52:00,52.2,47.8,29.84,NW,310,3.0,4.0,85,0.00,,,0.00,Wunderground v.1.15,2013-05-11 08:52:00,
2013-05-11 03:58:00,52.5,47.5,29.84,West,280,3.0,4.0,83,0.00,,,0.00,Wunderground v.1.15,2013-05-11 08:58:00,
2013-05-11 04:04:00,52.9,47.2,29.84,West,277,2.0,4.0,81,0.00,,,0.00,Wunderground v.1.15,2013-05-11 09:04:00,
2013-05-11 04:10:00,53.4,47.0,29.84,WNW,302,3.0,5.0,79,0.00,,,0.00,Wunderground v.1.15,2013-05-11 09:10:00,
2013-05-11 04:16:00,53.6,46.6,29.84,WSW,242,4.0,6.0,77,0.00,,,0.00,Wunderground v.1.15,2013-05-11 09:16:00,
2013-05-11 04:22:00,53.7,46.0,29.84,NW,309,3.0,4.0,75,0.00,,,0.00,Wunderground v.1.15,2013-05-11 09:22:00,
2013-05-11 04:28:00,53.6,45.9,29.84,NNW,332,3.0,5.0,75,0.00,,,0.00,Wunderground v.1.15,2013-05-11 09:28:00,
2013-05-11 04:34:00,53.7,45.6,29.84,West,260,3.0,6.0,74,0.00,,,0.00,Wunderground v.1.15,2013-05-11 09:34:00,
2013-05-11 04:40:00,53.6,45.5,29.85,WNW,287,4.0,4.0,74,0.00,,,0.00,Wunderground v.1.15,2013-05-11 09:40:00,
2013-05-11 04:46:00,53.4,45.3,29.85,WNW,290,4.0,9.0,74,0.00,,,0.00,Wunderground v.1.15,2013-05-11 09:46:00,
2013-05-11 04:52:00,53.0,44.9,29.85,NW,309,4.0,8.0,74,0.00,,,0.00,Wunderground v.1.15,2013-05-11 09:52:00,
2013-05-11 04:58:00,52.7,44.3,29.85,West,280,4.0,8.0,73,0.00,,,0.00,Wunderground v.1.15,2013-05-11 09:58:00,
2013-05-11 05:04:00,52.5,44.1,29.85,NW,311,4.0,5.0,73,0.00,,,0.00,Wunderground v.1.15,2013-05-11 10:04:00,
2013-05-11 05:10:00,52.2,43.4,29.86,NNW,337,4.0,5.0,72,0.00,,,0.00,Wunderground v.1.15,2013-05-11 10:10:00,
2013-05-11 05:16:00,52.0,43.3,29.85,NW,315,5.0,7.0,72,0.00,,,0.00,Wunderground v.1.15,2013-05-11 10:16:00,
2013-05-11 05:22:00,51.6,42.1,29.86,NW,319,5.0,9.0,70,0.00,,,0.00,Wunderground v.1.15,2013-05-11 10:22:00,
2013-05-11 05:28:00,51.0,40.8,29.86,NNE,15,5.0,13.0,68,0.00,,,0.00,Wunderground v.1.15,2013-05-11 10:28:00,
2013-05-11 05:34:00,50.7,40.1,29.87,NW,316,6.0,6.0,67,0.00,,,0.00,Wunderground v.1.15,2013-05-11 10:34:00,
2013-05-11 05:40:00,50.3,39.8,29.87,NW,322,5.0,5.0,67,0.00,,,0.00,Wunderground v.1.15,2013-05-11 10:40:00,
2013-05-11 05:46:00,49.9,39.8,29.87,WNW,297,4.0,5.0,68,0.00,,,0.00,Wunderground v.1.15,2013-05-11 10:46:00,
2013-05-11 05:52:00,49.5,39.0,29.88,NW,315,4.0,8.0,67,0.00,,,0.00,Wunderground v.1.15,2013-05-11 10:52:00,
2013-05-11 05:58:00,49.3,38.4,29.88,WNW,295,5.0,8.0,66,0.00,,,0.00,Wunderground v.1.15,2013-05-11 10:58:00,
2013-05-11 06:04:00,49.1,38.2,29.89,WNW,292,5.0,5.0,66,0.00,,,0.00,Wunderground v.1.15,2013-05-11 11:04:00,
2013-05-11 06:10:00,48.8,37.6,29.89,NW,323,3.0,5.0,65,0.00,,,0.00,Wunderground v.1.15,2013-05-11 11:10:00,
2013-05-11 06:16:00,48.7,37.5,29.89,NNW,341,4.0,5.0,65,0.00,,,0.00,Wunderground v.1.15,2013-05-11 11:16:00,
2013-05-11 06:22:00,48.7,37.1,29.89,NNW,339,5.0,5.0,64,0.00,,,0.00,Wunderground v.1.15,2013-05-11 11:22:00,
2013-05-11 06:28:00,48.6,37.0,29.90,NNW,339,5.0,7.0,64,0.00,,,0.00,Wunderground v.1.15,2013-05-11 11:28:00,
2013-05-11 06:34:00,48.5,36.9,29.90,NNW,344,5.0,10.0,64,0.00,,,0.00,Wunderground v.1.15,2013-05-11 11:34:00,
2013-05-11 06:40:00,48.4,37.2,29.91,NW,309,5.0,5.0,65,0.00,,,0.00,Wunderground v.1.15,2013-05-11 11:40:00,
2013-05-11 06:46:00,48.5,36.9,29.91,NNE,25,5.0,6.0,64,0.00,,,0.00,Wunderground v.1.15,2013-05-11 11:46:00,
2013-05-11 06:52:00,48.5,37.3,29.91,NW,313,6.0,7.0,65,0.00,,,0.00,Wunderground v.1.15,2013-05-11 11:52:00,
2013-05-11 06:58:00,48.5,37.3,29.92,WSW,253,6.0,9.0,65,0.00,,,0.00,Wunderground v.1.15,2013-05-11 11:58:00,
2013-05-11 07:04:00,48.4,37.6,29.92,NW,325,5.0,6.0,66,0.00,,,0.00,Wunderground v.1.15,2013-05-11 12:04:00,
2013-05-11 07:10:00,48.2,38.1,29.92,WNW,293,5.0,5.0,68,0.00,,,0.00,Wunderground v.1.15,2013-05-11 12:10:00,
2013-05-11 07:16:00,48.1,38.4,29.93,NNW,334,6.0,9.0,69,0.00,,,0.00,Wunderground v.1.15,2013-05-11 12:16:00,
2013-05-11 07:22:00,48.1,38.8,29.93,NW,305,6.0,6.0,70,0.00,,,0.00,Wunderground v.1.15,2013-05-11 12:22:00,
2013-05-11 07:28:00,48.2,38.9,29.93,NNE,13,5.0,13.0,70,0.00,,,0.00,Wunderground v.1.15,2013-05-11 12:28:00,
2013-05-11 07:34:00,48.4,37.9,29.93,NW,315,6.0,6.0,67,0.00,,,0.00,Wunderground v.1.15,2013-05-11 12:34:00,
2013-05-11 07:40:00,48.6,37.7,29.93,NW,308,6.0,7.0,66,0.00,,,0.00,Wunderground v.1.15,2013-05-11 12:40:00,
2013-05-11 07:46:00,48.7,38.2,29.93,NW,315,6.0,11.0,67,0.00,,,0.00,Wunderground v.1.15,2013-05-11 12:46:00,
2013-05-11 07:52:00,48.7,38.2,29.94,North,356,7.0,8.0,67,0.00,,,0.00,Wunderground v.1.15,2013-05-11 12:52:00,
2013-05-11 07:58:00,48.8,38.3,29.94,West,260,6.0,11.0,67,0.00,,,0.00,Wunderground v.1.15,2013-05-11 12:58:00,
2013-05-11 08:04:00,48.8,37.6,29.94,NE,51,6.0,7.0,65,0.00,,,0.00,Wunderground v.1.15,2013-05-11 13:04:00,
2013-05-11 08:10:00,48.6,37.7,29.94,NW,315,7.0,14.0,66,0.00,,,0.00,Wunderground v.1.15,2013-05-11 13:10:00,
2013-05-11 08:16:00,48.7,37.5,29.95,NNW,346,7.0,14.0,65,0.00,,,0.00,Wunderground v.1.15,2013-05-11 13:16:00,
2013-05-11 08:22:00,48.7,38.2,29.95,NW,318,6.0,7.0,67,0.00,,,0.00,Wunderground v.1.15,2013-05-11 13:22:00,
2013-05-11 08:28:00,48.8,36.8,29.95,NNW,337,7.0,7.0,63,0.00,,,0.00,Wunderground v.1.15,2013-05-11 13:28:00,
2013-05-11 08:34:00,49.2,37.9,29.95,NW,309,6.0,7.0,65,0.00,,,0.00,Wunderground v.1.15,2013-05-11 13:34:00,
2013-05-11 08:40:00,49.2,37.1,29.96,NW,304,5.0,5.0,63,0.00,,,0.00,Wunderground v.1.15,2013-05-11 13:40:00,
2013-05-11 08:46:00,49.3,38.0,29.95,WNW,294,6.0,6.0,65,0.00,,,0.00,Wunderground v.1.15,2013-05-11 13:46:00,
2013-05-11 08:52:00,49.4,37.3,29.96,NW,315,5.0,9.0,63,0.00,,,0.00,Wunderground v.1.15,2013-05-11 13:52:00,
2013-05-11 08:58:00,49.7,36.4,29.96,WNW,301,5.0,9.0,60,0.00,,,0.00,Wunderground v.1.15,2013-05-11 13:58:00,
2013-05-11 09:04:00,50.0,36.7,29.96,NW,318,5.0,10.0,60,0.00,,,0.00,Wunderground v.1.15,2013-05-11 14:04:00,
2013-05-11 09:10:00,50.1,36.7,29.97,NNW,342,6.0,6.0,60,0.00,,,0.00,Wunderground v.1.15,2013-05-11 14:10:00,
2013-05-11 09:16:00,50.4,37.9,29.97,West,266,6.0,8.0,62,0.00,,,0.00,Wunderground v.1.15,2013-05-11 14:16:00,
2013-05-11 09:22:00,50.2,38.5,29.97,NW,309,5.0,5.0,64,0.00,,,0.00,Wunderground v.1.15,2013-05-11 14:22:00,
2013-05-11 09:28:00,50.3,38.2,29.98,West,270,4.0,7.0,63,0.00,,,0.00,Wunderground v.1.15,2013-05-11 14:28:00,
2013-05-11 09:34:00,50.1,37.2,29.98,WNW,301,5.0,8.0,61,0.00,,,0.00,Wunderground v.1.15,2013-05-11 14:34:00,
2013-05-11 09:40:00,49.8,36.0,29.98,NW,311,6.0,6.0,59,0.00,,,0.00,Wunderground v.1.15,2013-05-11 14:40:00,
2013-05-11 09:46:00,50.1,36.7,29.97,NNW,347,6.0,10.0,60,0.00,,,0.00,Wunderground v.1.15,2013-05-11 14:46:00,
2013-05-11 09:52:00,50.4,36.6,29.97,NNW,329,5.0,9.0,59,0.00,,,0.00,Wunderground v.1.15,2013-05-11 14:52:00,
2013-05-11 09:58:00,50.6,35.0,29.97,NNW,344,5.0,9.0,55,0.00,,,0.00,Wunderground v.1.15,2013-05-11 14:58:00,
2013-05-11 10:04:00,51.2,33.2,29.97,NW,318,5.0,6.0,50,0.00,,,0.00,Wunderground v.1.15,2013-05-11 15:04:00,
2013-05-11 10:10:00,51.0,32.5,29.98,WNW,294,5.0,8.0,49,0.00,,,0.00,Wunderground v.1.15,2013-05-11 15:10:00,
2013-05-11 10:16:00,50.9,29.7,29.98,NW,314,6.0,9.0,44,0.00,,,0.00,Wunderground v.1.15,2013-05-11 15:16:00,
2013-05-11 10:22:00,50.9,30.3,29.98,SW,229,7.0,8.0,45,0.00,,,0.00,Wunderground v.1.15,2013-05-11 15:22:00,
2013-05-11 10:28:00,50.9,29.2,29.99,North,354,7.0,12.0,43,0.00,,,0.00,Wunderground v.1.15,2013-05-11 15:28:00,
2013-05-11 10:34:00,51.0,27.5,29.98,NNE,12,7.0,8.0,40,0.00,,,0.00,Wunderground v.1.15,2013-05-11 15:34:00,
2013-05-11 10:40:00,50.8,28.5,29.98,NW,309,7.0,9.0,42,0.00,,,0.00,Wunderground v.1.15,2013-05-11 15:40:00,
2013-05-11 10:46:00,51.2,30.6,29.98,NE,36,7.0,9.0,45,0.00,,,0.00,Wunderground v.1.15,2013-05-11 15:46:00,
2013-05-11 10:52:00,51.3,28.4,29.99,NNW,341,6.0,7.0,41,0.00,,,0.00,Wunderground v.1.15,2013-05-11 15:52:00,
2013-05-11 10:58:00,51.1,29.4,29.99,NNW,328,7.0,10.0,43,0.00,,,0.00,Wunderground v.1.15,2013-05-11 15:58:00,
2013-05-11 11:04:00,51.3,29.5,29.99,NE,47,6.0,9.0,43,0.00,,,0.00,Wunderground v.1.15,2013-05-11 16:04:00,
2013-05-11 11:10:00,51.4,30.2,29.99,WNW,299,7.0,11.0,44,0.00,,,0.00,Wunderground v.1.15,2013-05-11 16:10:00,
2013-05-11 11:16:00,51.5,30.3,30.00,NW,305,8.0,11.0,44,0.00,,,0.00,Wunderground v.1.15,2013-05-11 16:16:00,
2013-05-11 11:22:00,51.8,31.7,30.00,NNW,329,7.0,8.0,46,0.00,,,0.00,Wunderground v.1.15,2013-05-11 16:22:00,
2013-05-11 11:28:00,51.6,29.8,30.00,NW,321,8.0,9.0,43,0.00,,,0.00,Wunderground v.1.15,2013-05-11 16:28:00,
2013-05-11 11:34:00,51.4,29.6,30.00,NNE,23,8.0,10.0,43,0.00,,,0.00,Wunderground v.1.15,2013-05-11 16:34:00,
2013-05-11 11:40:00,51.6,29.8,30.00,West,278,8.0,10.0,43,0.00,,,0.00,Wunderground v.1.15,2013-05-11 16:40:00,
2013-05-11 11:46:00,51.7,29.9,30.00,NW,322,8.0,10.0,43,0.00,,,0.00,Wunderground v.1.15,2013-05-11 16:46:00,
2013-05-11 11:52:00,51.8,30.0,30.00,NW,314,8.0,8.0,43,0.00,,,0.00,Wunderground v.1.15,2013-05-11 16:52:00,
2013-05-11 11:58:00,51.3,31.2,30.00,NNW,332,6.0,11.0,46,0.00,,,0.00,Wunderground v.1.15,2013-05-11 16:58:00,
2013-05-11 12:04:00,51.6,30.4,30.00,West,271,6.0,12.0,44,0.00,,,0.00,Wunderground v.1.15,2013-05-11 17:04:00,
2013-05-11 12:10:00,51.5,30.8,30.00,NW,325,7.0,7.0,45,0.00,,,0.00,Wunderground v.1.15,2013-05-11 17:10:00,
2013-05-11 12:16:00,51.5,31.4,30.00,NW,311,6.0,8.0,46,0.00,,,0.00,Wunderground v.1.15,2013-05-11 17:16:00,
2013-05-11 12:22:00,52.2,30.4,30.00,WNW,301,6.0,6.0,43,0.00,,,0.00,Wunderground v.1.15,2013-05-11 17:22:00,
2013-05-11 12:28:00,52.1,30.8,30.00,NW,308,5.0,6.0,44,0.00,,,0.00,Wunderground v.1.15,2013-05-11 17:28:00,
2013-05-11 12:34:00,51.6,29.2,30.01,ENE,63,5.0,7.0,42,0.00,,,0.00,Wunderground v.1.15,2013-05-11 17:34:00,
2013-05-11 12:40:00,51.3,29.5,30.01,ENE,75,7.0,7.0,43,0.00,,,0.00,Wunderground v.1.15,2013-05-11 17:40:00,
2013-05-11 12:46:00,51.9,30.1,30.00,WNW,294,6.0,7.0,43,0.00,,,0.00,Wunderground v.1.15,2013-05-11 17:46:00,
2013-05-11 12:52:00,51.6,29.2,30.01,NW,315,6.0,6.0,42,0.00,,,0.00,Wunderground v.1.15,2013-05-11 17:52:00,
2013-05-11 12:58:00,51.1,29.4,30.01,NNW,347,7.0,8.0,43,0.00,,,0.00,Wunderground v.1.15,2013-05-11 17:58:00,
2013-05-11 13:04:00,51.0,30.4,30.01,WNW,284,7.0,11.0,45,0.00,,,0.00,Wunderground v.1.15,2013-05-11 18:04:00,
2013-05-11 13:10:00,51.8,30.0,30.00,NW,308,7.0,7.0,43,0.00,,,0.00,Wunderground v.1.15,2013-05-11 18:10:00,
2013-05-11 13:16:00,52.7,29.0,30.01,NW,318,6.0,11.0,40,0.00,,,0.00,Wunderground v.1.15,2013-05-11 18:16:00,
2013-05-11 13:22:00,52.3,28.1,30.01,NE,49,7.0,7.0,39,0.00,,,0.00,Wunderground v.1.15,2013-05-11 18:22:00,
2013-05-11 13:28:00,52.4,28.8,30.01,WNW,290,6.0,9.0,40,0.00,,,0.00,Wunderground v.1.15,2013-05-11 18:28:00,
2013-05-11 13:34:00,52.4,28.1,30.01,NNW,343,5.0,6.0,39,0.00,,,0.00,Wunderground v.1.15,2013-05-11 18:34:00,
2013-05-11 13:40:00,52.8,30.3,30.01,NNW,334,6.0,6.0,42,0.00,,,0.00,Wunderground v.1.15,2013-05-11 18:40:00,
2013-05-11 13:46:00,53.2,30.1,30.01,NNW,348,5.0,6.0,41,0.00,,,0.00,Wunderground v.1.15,2013-05-11 18:46:00,
2013-05-11 13:52:00,53.6,28.6,30.01,NW,305,6.0,7.0,38,0.00,,,0.00,Wunderground v.1.15,2013-05-11 18:52:00,
2013-05-11 13:58:00,53.9,28.2,30.01,WNW,287,6.0,9.0,37,0.00,,,0.00,Wunderground v.1.15,2013-05-11 18:58:00,
2013-05-11 14:04:00,54.1,29.0,30.01,WNW,290,7.0,7.0,38,0.00,,,0.00,Wunderground v.1.15,2013-05-11 19:04:00,
2013-05-11 14:10:00,53.8,28.8,30.01,NW,315,7.0,7.0,38,0.00,,,0.00,Wunderground v.1.15,2013-05-11 19:10:00,
2013-05-11 14:16:00,53.4,29.7,30.01,West,267,6.0,7.0,40,0.00,,,0.00,Wunderground v.1.15,2013-05-11 19:16:00,
2013-05-11 14:22:00,53.5,31.5,30.01,WNW,294,6.0,7.0,43,0.00,,,0.00,Wunderground v.1.15,2013-05-11 19:22:00,
2013-05-11 14:28:00,53.9,30.1,30.01,NW,305,5.0,7.0,40,0.00,,,0.00,Wunderground v.1.15,2013-05-11 19:28:00,
2013-05-11 14:34:00,54.4,28.6,30.01,WNW,290,5.0,8.0,37,0.00,,,0.00,Wunderground v.1.15,2013-05-11 19:34:00,
2013-05-11 14:40:00,54.2,28.5,30.01,WNW,284,6.0,15.0,37,0.00,,,0.00,Wunderground v.1.15,2013-05-11 19:40:00,
2013-05-11 14:48:00,53.7,26.7,30.01,NW,313,7.0,15.0,35,0.00,,,0.00,Wunderground v.1.15,2013-05-11 19:48:00,
2013-05-11 14:54:00,53.9,26.1,30.01,WNW,295,7.0,7.0,34,0.00,,,0.00,Wunderground v.1.15,2013-05-11 19:54:00,
2013-05-11 15:00:00,54.1,26.3,30.01,SW,229,7.0,7.0,34,0.00,,,0.00,Wunderground v.1.15,2013-05-11 20:00:00,
2013-05-11 15:06:00,54.0,25.5,30.01,WNW,302,8.0,15.0,33,0.00,,,0.00,Wunderground v.1.15,2013-05-11 20:06:00,
2013-05-11 15:12:00,53.5,25.1,30.02,West,269,8.0,8.0,33,0.00,,,0.00,Wunderground v.1.15,2013-05-11 20:12:00,
2013-05-11 15:18:00,53.7,23.7,30.01,NW,316,6.0,8.0,31,0.00,,,0.00,Wunderground v.1.15,2013-05-11 20:18:00,
2013-05-11 15:24:00,52.9,24.5,30.02,WNW,298,6.0,7.0,33,0.00,,,0.00,Wunderground v.1.15,2013-05-11 20:24:00,
2013-05-11 15:30:00,53.1,25.4,30.02,NNE,20,6.0,6.0,34,0.00,,,0.00,Wunderground v.1.15,2013-05-11 20:30:00,
2013-05-11 15:36:00,53.7,24.5,30.02,NW,305,7.0,11.0,32,0.00,,,0.00,Wunderground v.1.15,2013-05-11 20:36:00,
2013-05-11 15:42:00,53.6,23.7,30.01,NW,326,7.0,8.0,31,0.00,,,0.00,Wunderground v.1.15,2013-05-11 20:42:00,
2013-05-11 15:48:00,53.4,24.2,30.02,NW,320,6.0,11.0,32,0.00,,,0.00,Wunderground v.1.15,2013-05-11 20:48:00,
2013-05-11 15:54:00,53.0,22.4,30.02,North,353,7.0,8.0,30,0.00,,,0.00,Wunderground v.1.15,2013-05-11 20:54:00,
2013-05-11 16:00:00,53.0,23.9,30.01,NNW,330,7.0,7.0,32,0.00,,,0.00,Wunderground v.1.15,2013-05-11 21:00:00,
2013-05-11 16:06:00,53.8,22.2,30.02,WNW,291,7.0,11.0,29,0.00,,,0.00,Wunderground v.1.15,2013-05-11 21:06:00,
2013-05-11 16:12:00,53.3,24.2,30.02,West,273,7.0,7.0,32,0.00,,,0.00,Wunderground v.1.15,2013-05-11 21:12:00,
2013-05-11 16:18:00,53.7,23.7,30.02,NNW,330,5.0,7.0,31,0.00,,,0.00,Wunderground v.1.15,2013-05-11 21:18:00,
2013-05-11 16:24:00,53.8,22.2,30.02,NNW,343,5.0,8.0,29,0.00,,,0.00,Wunderground v.1.15,2013-05-11 21:24:00,
2013-05-11 16:30:00,53.7,23.7,30.01,NNE,13,6.0,6.0,31,0.00,,,0.00,Wunderground v.1.15,2013-05-11 21:30:00,
2013-05-11 16:36:00,54.1,22.5,30.02,North,351,6.0,6.0,29,0.00,,,0.00,Wunderground v.1.15,2013-05-11 21:36:00,
2013-05-11 16:42:00,54.1,23.3,30.01,North,356,6.0,6.0,30,0.00,,,0.00,Wunderground v.1.15,2013-05-11 21:42:00,
2013-05-11 16:48:00,53.9,21.5,30.02,NW,312,6.0,7.0,28,0.00,,,0.00,Wunderground v.1.15,2013-05-11 21:48:00,
2013-05-11 16:54:00,53.6,22.9,30.02,NNW,330,6.0,9.0,30,0.00,,,0.00,Wunderground v.1.15,2013-05-11 21:54:00,
2013-05-11 17:00:00,53.3,21.8,30.02,NNW,344,5.0,5.0,29,0.00,,,0.00,Wunderground v.1.15,2013-05-11 22:00:00,
2013-05-11 17:06:00,54.1,20.8,30.02,SW,236,5.0,9.0,27,0.00,,,0.00,Wunderground v.1.15,2013-05-11 22:06:00,
2013-05-11 17:12:00,54.2,20.0,30.02,NNW,340,6.0,9.0,26,0.00,,,0.00,Wunderground v.1.15,2013-05-11 22:12:00,
2013-05-11 17:18:00,54.2,19.1,30.02,NW,312,7.0,10.0,25,0.00,,,0.00,Wunderground v.1.15,2013-05-11 22:18:00,
2013-05-11 17:24:00,54.7,19.5,30.02,NNW,345,6.0,8.0,25,0.00,,,0.00,Wunderground v.1.15,2013-05-11 22:24:00,
2013-05-11 17:30:00,54.4,19.3,30.02,SW,224,6.0,6.0,25,0.00,,,0.00,Wunderground v.1.15,2013-05-11 22:30:00,
2013-05-11 17:36:00,54.4,19.3,30.02,NW,318,7.0,9.0,25,0.00,,,0.00,Wunderground v.1.15,2013-05-11 22:36:00,
2013-05-11 17:42:00,54.4,18.3,30.02,NNW,335,6.0,9.0,24,0.00,,,0.00,Wunderground v.1.15,2013-05-11 22:42:00,
2013-05-11 17:48:00,54.9,19.7,30.02,NW,311,5.0,9.0,25,0.00,,,0.00,Wunderground v.1.15,2013-05-11 22:48:00,
2013-05-11 17:54:00,54.7,19.5,30.02,West,266,5.0,11.0,25,0.00,,,0.00,Wunderground v.1.15,2013-05-11 22:54:00,
2013-05-11 18:00:00,54.6,20.4,30.02,NW,309,6.0,9.0,26,0.00,,,0.00,Wunderground v.1.15,2013-05-11 23:00:00,
2013-05-11 18:06:00,54.5,18.4,30.02,WNW,297,5.0,9.0,24,0.00,,,0.00,Wunderground v.1.15,2013-05-11 23:06:00,
2013-05-11 18:12:00,54.4,18.3,30.02,NW,308,5.0,5.0,24,0.00,,,0.00,Wunderground v.1.15,2013-05-11 23:12:00,
2013-05-11 18:18:00,54.4,18.3,30.03,NW,309,5.0,6.0,24,0.00,,,0.00,Wunderground v.1.15,2013-05-11 23:18:00,
2013-05-11 18:24:00,54.5,19.3,30.03,NW,311,5.0,5.0,25,0.00,,,0.00,Wunderground v.1.15,2013-05-11 23:24:00,
2013-05-11 18:30:00,54.6,19.4,30.03,WSW,250,5.0,5.0,25,0.00,,,0.00,Wunderground v.1.15,2013-05-11 23:30:00,
2013-05-11 18:36:00,54.4,18.3,30.03,NW,319,5.0,5.0,24,0.00,,,0.00,Wunderground v.1.15,2013-05-11 23:36:00,
2013-05-11 18:42:00,54.3,20.1,30.03,NW,319,5.0,5.0,26,0.00,,,0.00,Wunderground v.1.15,2013-05-11 23:42:00,
2013-05-11 18:48:00,54.4,19.3,30.03,WNW,302,4.0,5.0,25,0.00,,,0.00,Wunderground v.1.15,2013-05-11 23:48:00,
2013-05-11 18:54:00,53.9,19.8,30.03,West,278,5.0,9.0,26,0.00,,,0.00,Wunderground v.1.15,2013-05-11 23:54:00,
2013-05-11 19:00:00,53.7,20.5,30.03,NNW,337,6.0,6.0,27,0.00,,,0.00,Wunderground v.1.15,2013-05-12 00:00:00,
2013-05-11 19:06:00,53.6,19.5,30.03,NNW,334,5.0,6.0,26,0.00,,,0.00,Wunderground v.1.15,2013-05-12 00:06:00,
2013-05-11 19:12:00,53.6,19.5,30.03,NNW,346,4.0,6.0,26,0.00,,,0.00,Wunderground v.1.15,2013-05-12 00:12:00,
2013-05-11 19:18:00,53.4,21.1,30.03,North,4,4.0,6.0,28,0.00,,,0.00,Wunderground v.1.15,2013-05-12 00:18:00,
2013-05-11 19:24:00,53.4,21.9,30.03,WSW,245,3.0,4.0,29,0.00,,,0.00,Wunderground v.1.15,2013-05-12 00:24:00,
2013-05-11 19:30:00,53.2,20.9,30.04,NNW,329,3.0,4.0,28,0.00,,,0.00,Wunderground v.1.15,2013-05-12 00:30:00,
2013-05-11 19:36:00,52.9,21.5,30.03,NNW,340,3.0,5.0,29,0.00,,,0.00,Wunderground v.1.15,2013-05-12 00:36:00,
2013-05-11 19:42:00,52.4,21.8,30.04,WSW,245,3.0,4.0,30,0.00,,,0.00,Wunderground v.1.15,2013-05-12 00:42:00,
2013-05-11 19:48:00,52.1,22.3,30.04,NW,318,5.0,7.0,31,0.00,,,0.00,Wunderground v.1.15,2013-05-12 00:48:00,
2013-05-11 19:54:00,51.8,22.1,30.04,NW,305,4.0,8.0,31,0.00,,,0.00,Wunderground v.1.15,2013-05-12 00:54:00,
2013-05-11 20:00:00,51.3,23.1,30.04,WNW,298,4.0,5.0,33,0.00,,,0.00,Wunderground v.1.15,2013-05-12 01:00:00,
2013-05-11 20:06:00,50.8,23.4,30.04,WNW,292,3.0,5.0,34,0.00,,,0.00,Wunderground v.1.15,2013-05-12 01:06:00,
2013-05-11 20:12:00,50.4,23.1,30.04,NNW,330,3.0,3.0,34,0.00,,,0.00,Wunderground v.1.15,2013-05-12 01:12:00,
2013-05-11 20:18:00,50.2,23.6,30.04,NE,40,4.0,5.0,35,0.00,,,0.00,Wunderground v.1.15,2013-05-12 01:18:00,
2013-05-11 20:24:00,50.0,23.4,30.05,NNW,329,4.0,4.0,35,0.00,,,0.00,Wunderground v.1.15,2013-05-12 01:24:00,
2013-05-11 20:30:00,49.7,24.5,30.04,NE,55,3.0,3.0,37,0.00,,,0.00,Wunderground v.1.15,2013-05-12 01:30:00,
2013-05-11 20:36:00,49.4,24.2,30.05,North,358,2.0,3.0,37,0.00,,,0.00,Wunderground v.1.15,2013-05-12 01:36:00,
2013-05-11 20:42:00,49.1,24.6,30.05,NE,43,2.0,2.0,38,0.00,,,0.00,Wunderground v.1.15,2013-05-12 01:42:00,
2013-05-11 20:48:00,48.9,24.4,30.05,WNW,290,2.0,6.0,38,0.00,,,0.00,Wunderground v.1.15,2013-05-12 01:48:00,
2013-05-11 20:54:00,48.7,24.2,30.05,NNE,19,2.0,3.0,38,0.00,,,0.00,Wunderground v.1.15,2013-05-12 01:54:00,
2013-05-11 21:00:00,48.5,24.6,30.06,NW,311,2.0,2.0,39,0.00,,,0.00,Wunderground v.1.15,2013-05-12 02:00:00,
2013-05-11 21:06:00,48.3,25.1,30.06,NW,314,2.0,2.0,40,0.00,,,0.00,Wunderground v.1.15,2013-05-12 02:06:00,
2013-05-11 21:12:00,48.3,25.1,30.06,NW,315,2.0,2.0,40,0.00,,,0.00,Wunderground v.1.15,2013-05-12 02:12:00,
2013-05-11 21:18:00,48.0,25.4,30.06,SW,229,2.0,5.0,41,0.00,,,0.00,Wunderground v.1.15,2013-05-12 02:18:00,
2013-05-11 21:24:00,47.8,25.2,30.06,NW,323,1.0,2.0,41,0.00,,,0.00,Wunderground v.1.15,2013-05-12 02:24:00,
2013-05-11 21:30:00,47.6,25.6,30.06,NW,310,1.0,1.0,42,0.00,,,0.00,Wunderground v.1.15,2013-05-12 02:30:00,
2013-05-11 21:36:00,47.3,25.9,30.07,NW,314,1.0,1.0,43,0.00,,,0.00,Wunderground v.1.15,2013-05-12 02:36:00,
2013-05-11 21:42:00,47.1,26.3,30.07,NW,312,1.0,1.0,44,0.00,,,0.00,Wunderground v.1.15,2013-05-12 02:42:00,
2013-05-11 21:48:00,46.9,26.1,30.07,WSW,245,1.0,3.0,44,0.00,,,0.00,Wunderground v.1.15,2013-05-12 02:48:00,
2013-05-11 21:54:00,46.7,25.9,30.07,NW,323,1.0,1.0,44,0.00,,,0.00,Wunderground v.1.15,2013-05-12 02:54:00,
2013-05-11 22:00:00,46.4,26.2,30.07,WNW,287,1.0,1.0,45,0.00,,,0.00,Wunderground v.1.15,2013-05-12 03:00:00,
2013-05-11 22:06:00,46.1,26.4,30.07,NW,314,0.0,4.0,46,0.00,,,0.00,Wunderground v.1.15,2013-05-12 03:06:00,
2013-05-11 22:12:00,46.0,26.4,30.07,WNW,290,0.0,1.0,46,0.00,,,0.00,Wunderground v.1.15,2013-05-12 03:12:00,
2013-05-11 22:18:00,45.9,26.3,30.08,West,278,0.0,2.0,46,0.00,,,0.00,Wunderground v.1.15,2013-05-12 03:18:00,
2013-05-11 22:24:00,45.7,26.6,30.08,NW,321,0.0,3.0,47,0.00,,,0.00,Wunderground v.1.15,2013-05-12 03:24:00,
2013-05-11 22:30:00,45.6,26.5,30.08,NNW,343,1.0,1.0,47,0.00,,,0.00,Wunderground v.1.15,2013-05-12 03:30:00,
2013-05-11 22:36:00,45.5,26.4,30.08,WNW,295,1.0,2.0,47,0.00,,,0.00,Wunderground v.1.15,2013-05-12 03:36:00,
2013-05-11 22:42:00,45.2,26.1,30.08,West,280,1.0,2.0,47,0.00,,,0.00,Wunderground v.1.15,2013-05-12 03:42:00,
2013-05-11 22:48:00,45.0,26.5,30.08,NNW,330,0.0,2.0,48,0.00,,,0.00,Wunderground v.1.15,2013-05-12 03:48:00,
2013-05-11 22:54:00,44.9,26.9,30.08,West,262,1.0,3.0,49,0.00,,,0.00,Wunderground v.1.15,2013-05-12 03:54:00,
2013-05-11 23:00:00,44.7,26.7,30.08,WNW,300,1.0,1.0,49,0.00,,,0.00,Wunderground v.1.15,2013-05-12 04:00:00,
2013-05-11 23:02:00,44.7,27.2,30.08,WNW,301,1.0,1.0,50,0.00,,,0.00,Wunderground v.1.15,2013-05-12 04:02:00,
2013-05-11 23:04:00,44.6,27.1,30.08,NW,311,0.0,1.0,50,0.00,,,0.00,Wunderground v.1.15,2013-05-12 04:04:00,
2013-05-11 23:06:00,44.5,26.5,30.08,NW,315,0.0,1.0,49,0.00,,,0.00,Wunderground v.1.15,2013-05-12 04:06:00,
2013-05-11 23:12:00,44.4,27.4,30.08,WNW,287,0.0,1.0,51,0.00,,,0.00,Wunderground v.1.15,2013-05-12 04:12:00,
2013-05-11 23:18:00,44.3,27.3,30.08,West,269,0.0,4.0,51,0.00,,,0.00,Wunderground v.1.15,2013-05-12 04:18:00,
2013-05-11 23:20:00,44.2,27.2,30.08,NW,313,1.0,1.0,51,0.00,,,0.00,Wunderground v.1.15,2013-05-12 04:20:00,
2013-05-11 23:22:00,44.1,27.1,30.08,NW,311,0.0,1.0,51,0.00,,,0.00,Wunderground v.1.15,2013-05-12 04:22:00,
2013-05-11 23:28:00,43.9,27.4,30.08,NW,314,0.0,1.0,52,0.00,,,0.00,Wunderground v.1.15,2013-05-12 04:28:00,
2013-05-11 23:34:00,43.6,27.1,30.08,WNW,290,0.0,0.0,52,0.00,,,0.00,Wunderground v.1.15,2013-05-12 04:34:00,
2013-05-11 23:40:00,43.4,27.4,30.08,WNW,284,0.0,0.0,53,0.00,,,0.00,Wunderground v.1.15,2013-05-12 04:40:00,
2013-05-11 23:46:00,43.3,27.3,30.08,West,276,0.0,0.0,53,0.00,,,0.00,Wunderground v.1.15,2013-05-12 04:46:00,
2013-05-11 23:52:00,43.2,27.2,30.08,WNW,287,1.0,2.0,53,0.00,,,0.00,Wunderground v.1.15,2013-05-12 04:52:00,
2013-05-11 23:58:00,43.2,26.7,30.08,NW,315,1.0,2.0,52,0.00,,,0.00,Wunderground v.1.15,2013-05-12 04:58:00,